EIN960 KSFO-EIDW
Flight info
| Callsign | EIN960 |
|---|---|
| Flight time | N/A |
| Altitude | 37000 |
| Route | SNTNA2 DEDHD DCT KO51E DCT KO66G DCT KU78I DCT KU90K DCT ITREK DCT ELTAX DCT YYQ/N0475F390 DCT 61N090W 6430N08000W 6630N07000W/M079F390 DCT DARUB DCT 67N050W 66N040W 64N030W 6030N02000W DCT AGORI/N0442F390 DCT OSBOX DCT REVNU DCT OLAPO OLAPO3R |
| Aircraft | A333/H-SDE3GHIJ2J3J5M1RVWXY/LB2D1 |
Departure
| Time | 2026-05-03 22:39 |
|---|---|
| Airport | San Francisco International Airport (KSFO) |
Arrival
| Time | N/A |
|---|---|
| Airport | Dublin Airport (EIDW) |
| Time | Latitude | Longitude | Altitude | Speed | Heading |
|---|---|---|---|---|---|
| 2026-05-03 22:04 | 37.61281 | -122.38858 | 30 ft | 0 kts | 296° |
| 2026-05-03 22:18 | 37.61278 | -122.38851 | 30 ft | 2 kts | 296° |
| 2026-05-03 22:18 | 37.61272 | -122.38834 | 30 ft | 2 kts | 296° |
| 2026-05-03 22:18 | 37.61267 | -122.38822 | 30 ft | 2 kts | 296° |
| 2026-05-03 22:19 | 37.61261 | -122.38805 | 30 ft | 1 kts | 296° |
| 2026-05-03 22:19 | 37.61256 | -122.38788 | 30 ft | 2 kts | 274° |
| 2026-05-03 22:19 | 37.61257 | -122.38769 | 30 ft | 2 kts | 252° |
| 2026-05-03 22:19 | 37.61261 | -122.38757 | 30 ft | 2 kts | 238° |
| 2026-05-03 22:20 | 37.61274 | -122.38738 | 30 ft | 1 kts | 210° |
| 2026-05-03 22:20 | 37.61277 | -122.38736 | 30 ft | 1 kts | 206° |
| 2026-05-03 22:20 | 37.61280 | -122.38734 | 30 ft | 0 kts | 206° |
| 2026-05-03 22:22 | 37.61272 | -122.38740 | 30 ft | 2 kts | 207° |
| 2026-05-03 22:22 | 37.61247 | -122.38757 | 30 ft | 5 kts | 208° |
| 2026-05-03 22:23 | 37.61202 | -122.38786 | 30 ft | 8 kts | 207° |
| 2026-05-03 22:23 | 37.61159 | -122.38815 | 30 ft | 5 kts | 208° |
| 2026-05-03 22:23 | 37.61121 | -122.38840 | 30 ft | 2 kts | 208° |
| 2026-05-03 22:23 | 37.61120 | -122.38841 | 30 ft | 0 kts | 208° |
| 2026-05-03 22:24 | 37.61104 | -122.38851 | 30 ft | 8 kts | 207° |
| 2026-05-03 22:25 | 37.61009 | -122.38859 | 30 ft | 10 kts | 135° |
| 2026-05-03 22:25 | 37.60988 | -122.38812 | 30 ft | 8 kts | 120° |
| 2026-05-03 22:25 | 37.60943 | -122.38709 | 30 ft | 12 kts | 119° |
| 2026-05-03 22:25 | 37.60898 | -122.38603 | 30 ft | 15 kts | 113° |
| 2026-05-03 22:26 | 37.60888 | -122.38462 | 30 ft | 17 kts | 81° |
| 2026-05-03 22:26 | 37.60908 | -122.38313 | 30 ft | 16 kts | 83° |
| 2026-05-03 22:26 | 37.60871 | -122.38185 | 30 ft | 14 kts | 116° |
| 2026-05-03 22:26 | 37.60840 | -122.38107 | 30 ft | 14 kts | 118° |
| 2026-05-03 22:27 | 37.60774 | -122.37953 | 30 ft | 14 kts | 118° |
| 2026-05-03 22:27 | 37.60749 | -122.37874 | 30 ft | 12 kts | 92° |
| 2026-05-03 22:27 | 37.60823 | -122.37785 | 30 ft | 12 kts | 28° |
| 2026-05-03 22:27 | 37.60908 | -122.37727 | 30 ft | 15 kts | 28° |
| 2026-05-03 22:28 | 37.61010 | -122.37661 | 30 ft | 17 kts | 27° |
| 2026-05-03 22:28 | 37.61123 | -122.37586 | 30 ft | 19 kts | 29° |
| 2026-05-03 22:28 | 37.61247 | -122.37503 | 30 ft | 20 kts | 28° |
| 2026-05-03 22:28 | 37.61379 | -122.37415 | 30 ft | 22 kts | 29° |
| 2026-05-03 22:29 | 37.61516 | -122.37318 | 30 ft | 22 kts | 43° |
| 2026-05-03 22:29 | 37.61556 | -122.37135 | 30 ft | 22 kts | 104° |
| 2026-05-03 22:29 | 37.61483 | -122.36955 | 30 ft | 23 kts | 122° |
| 2026-05-03 22:29 | 37.61373 | -122.36795 | 30 ft | 24 kts | 125° |
| 2026-05-03 22:30 | 37.61288 | -122.36597 | 30 ft | 25 kts | 118° |
| 2026-05-03 22:30 | 37.61221 | -122.36435 | 30 ft | 12 kts | 118° |
| 2026-05-03 22:30 | 37.61179 | -122.36334 | 30 ft | 13 kts | 118° |
| 2026-05-03 22:30 | 37.61144 | -122.36252 | 30 ft | 6 kts | 117° |
| 2026-05-03 22:31 | 37.61124 | -122.36202 | 30 ft | 5 kts | 117° |
| 2026-05-03 22:31 | 37.61103 | -122.36153 | 30 ft | 6 kts | 119° |
| 2026-05-03 22:31 | 37.61077 | -122.36093 | 30 ft | 8 kts | 118° |
| 2026-05-03 22:31 | 37.61052 | -122.36014 | 30 ft | 10 kts | 94° |
| 2026-05-03 22:32 | 37.61069 | -122.35932 | 30 ft | 8 kts | 51° |
| 2026-05-03 22:32 | 37.61098 | -122.35906 | 30 ft | 0 kts | 31° |
| 2026-05-03 22:36 | 37.61100 | -122.35904 | 30 ft | 2 kts | 31° |
| 2026-05-03 22:36 | 37.61149 | -122.35870 | 30 ft | 12 kts | 27° |
| 2026-05-03 22:36 | 37.61192 | -122.35883 | 30 ft | 6 kts | 301° |
| 2026-05-03 22:37 | 37.61195 | -122.35889 | 30 ft | 0 kts | 300° |
| 2026-05-03 22:38 | 37.61196 | -122.35890 | 30 ft | 1 kts | 300° |
| 2026-05-03 22:38 | 37.61270 | -122.36066 | 30 ft | 54 kts | 298° |
| 2026-05-03 22:39 | 37.61554 | -122.36739 | 31 ft | 116 kts | 297° |
| 2026-05-03 22:39 | 37.62011 | -122.37838 | 33 ft | 166 kts | 294° |
| 2026-05-03 22:39 | 37.62593 | -122.39214 | 446 ft | 178 kts | 295° |
| 2026-05-03 22:39 | 37.63191 | -122.40571 | 1044 ft | 180 kts | 295° |
| 2026-05-03 22:40 | 37.63787 | -122.41952 | 1671 ft | 182 kts | 295° |
| 2026-05-03 22:40 | 37.64404 | -122.43392 | 2092 ft | 191 kts | 295° |
| 2026-05-03 22:40 | 37.65065 | -122.44942 | 2374 ft | 206 kts | 295° |
| 2026-05-03 22:40 | 37.65769 | -122.46589 | 2653 ft | 221 kts | 296° |
| 2026-05-03 22:41 | 37.66533 | -122.48371 | 2966 ft | 238 kts | 296° |
| 2026-05-03 22:41 | 37.67363 | -122.50282 | 3284 ft | 256 kts | 301° |
| 2026-05-03 22:41 | 37.68657 | -122.51928 | 3657 ft | 273 kts | 331° |
| 2026-05-03 22:41 | 37.70476 | -122.52560 | 4293 ft | 276 kts | 356° |
| 2026-05-03 22:42 | 37.72408 | -122.52644 | 4995 ft | 277 kts | 360° |
| 2026-05-03 22:42 | 37.74339 | -122.52673 | 5645 ft | 279 kts | 0° |
| 2026-05-03 22:42 | 37.76300 | -122.52710 | 6288 ft | 281 kts | 0° |
| 2026-05-03 22:42 | 37.78262 | -122.52721 | 6917 ft | 283 kts | 8° |
| 2026-05-03 22:43 | 37.80100 | -122.51942 | 7524 ft | 281 kts | 36° |
| 2026-05-03 22:43 | 37.81437 | -122.50162 | 8159 ft | 277 kts | 63° |
| 2026-05-03 22:43 | 37.82253 | -122.47964 | 8808 ft | 277 kts | 68° |
| 2026-05-03 22:43 | 37.83021 | -122.45702 | 9418 ft | 280 kts | 66° |
| 2026-05-03 22:44 | 37.84097 | -122.43654 | 10010 ft | 284 kts | 46° |
| 2026-05-03 22:44 | 37.85127 | -122.42567 | 10375 ft | 289 kts | 34° |
| 2026-05-03 22:44 | 37.87579 | -122.40876 | 10760 ft | 309 kts | 28° |
| 2026-05-03 22:44 | 37.88880 | -122.40054 | 10943 ft | 318 kts | 28° |
| 2026-05-03 22:45 | 37.91576 | -122.38359 | 11593 ft | 327 kts | 28° |
| 2026-05-03 22:45 | 37.92948 | -122.37490 | 12025 ft | 328 kts | 28° |
| 2026-05-03 22:45 | 37.95687 | -122.35748 | 12865 ft | 331 kts | 28° |
| 2026-05-03 22:45 | 37.97749 | -122.34431 | 13461 ft | 334 kts | 28° |
| 2026-05-03 22:46 | 37.99144 | -122.33536 | 13859 ft | 335 kts | 28° |
| 2026-05-03 22:46 | 38.01953 | -122.31731 | 14651 ft | 339 kts | 28° |
| 2026-05-03 22:46 | 38.04043 | -122.30385 | 15228 ft | 341 kts | 28° |
| 2026-05-03 22:46 | 38.06191 | -122.29000 | 15810 ft | 344 kts | 28° |
| 2026-05-03 22:47 | 38.08320 | -122.27626 | 16377 ft | 346 kts | 28° |
| 2026-05-03 22:47 | 38.10481 | -122.26230 | 16944 ft | 349 kts | 28° |
| 2026-05-03 22:47 | 38.12661 | -122.24822 | 17507 ft | 352 kts | 29° |
| 2026-05-03 22:47 | 38.14867 | -122.23394 | 18066 ft | 354 kts | 29° |
| 2026-05-03 22:48 | 38.17072 | -122.21967 | 18611 ft | 357 kts | 29° |
| 2026-05-03 22:48 | 38.19296 | -122.20527 | 19151 ft | 359 kts | 29° |
| 2026-05-03 22:48 | 38.21537 | -122.19075 | 19691 ft | 361 kts | 29° |
| 2026-05-03 22:48 | 38.23798 | -122.17609 | 20274 ft | 362 kts | 29° |
| 2026-05-03 22:49 | 38.26022 | -122.16166 | 20787 ft | 363 kts | 29° |
| 2026-05-03 22:49 | 38.28304 | -122.14683 | 21270 ft | 366 kts | 29° |
| 2026-05-03 22:49 | 38.30591 | -122.13197 | 21742 ft | 368 kts | 29° |
| 2026-05-03 22:49 | 38.32871 | -122.11713 | 22197 ft | 371 kts | 29° |
| 2026-05-03 22:50 | 38.35184 | -122.10177 | 22643 ft | 373 kts | 30° |
| 2026-05-03 22:50 | 38.37469 | -122.08610 | 23075 ft | 375 kts | 31° |
| 2026-05-03 22:50 | 38.39028 | -122.07535 | 23362 ft | 377 kts | 31° |
| 2026-05-03 22:50 | 38.42100 | -122.05419 | 23918 ft | 380 kts | 31° |
| 2026-05-03 22:51 | 38.44443 | -122.03808 | 24330 ft | 382 kts | 31° |
| 2026-05-03 22:51 | 38.46035 | -122.02714 | 24603 ft | 383 kts | 31° |
| 2026-05-03 22:51 | 38.49171 | -122.00558 | 25121 ft | 386 kts | 31° |
| 2026-05-03 22:51 | 38.51503 | -121.98840 | 25498 ft | 387 kts | 33° |
| 2026-05-03 22:52 | 38.53834 | -121.97056 | 25879 ft | 389 kts | 33° |
| 2026-05-03 22:52 | 38.56179 | -121.95252 | 26241 ft | 391 kts | 33° |
| 2026-05-03 22:52 | 38.58505 | -121.93461 | 26597 ft | 393 kts | 33° |
| 2026-05-03 22:52 | 38.60079 | -121.92248 | 26824 ft | 394 kts | 33° |
| 2026-05-03 22:53 | 38.63241 | -121.89812 | 27266 ft | 397 kts | 33° |
| 2026-05-03 22:53 | 38.65597 | -121.87997 | 27593 ft | 399 kts | 33° |
| 2026-05-03 22:53 | 38.67989 | -121.86152 | 27929 ft | 400 kts | 33° |
| 2026-05-03 22:53 | 38.70410 | -121.84284 | 28258 ft | 402 kts | 33° |
| 2026-05-03 22:54 | 38.72813 | -121.82428 | 28567 ft | 403 kts | 33° |
| 2026-05-03 22:54 | 38.75238 | -121.80554 | 28862 ft | 405 kts | 33° |
| 2026-05-03 22:54 | 38.77663 | -121.78680 | 29151 ft | 407 kts | 33° |
| 2026-05-03 22:54 | 38.80094 | -121.76798 | 29439 ft | 409 kts | 33° |
| 2026-05-03 22:55 | 38.82540 | -121.74903 | 29724 ft | 410 kts | 33° |
| 2026-05-03 22:55 | 38.84980 | -121.73011 | 29997 ft | 412 kts | 33° |
| 2026-05-03 22:55 | 38.87462 | -121.71085 | 30277 ft | 413 kts | 33° |
| 2026-05-03 22:55 | 38.89938 | -121.69164 | 30542 ft | 415 kts | 33° |
| 2026-05-03 22:56 | 38.91585 | -121.67883 | 30691 ft | 417 kts | 33° |
| 2026-05-03 22:56 | 38.94075 | -121.65945 | 30876 ft | 420 kts | 33° |
| 2026-05-03 22:56 | 38.97441 | -121.63323 | 31109 ft | 425 kts | 33° |
| 2026-05-03 22:56 | 38.99139 | -121.62000 | 31230 ft | 427 kts | 33° |
| 2026-05-03 22:57 | 39.02551 | -121.59338 | 31462 ft | 431 kts | 33° |
| 2026-05-03 22:57 | 39.05116 | -121.57336 | 31638 ft | 434 kts | 33° |
| 2026-05-03 22:57 | 39.07732 | -121.55293 | 31848 ft | 436 kts | 33° |
| 2026-05-03 22:57 | 39.10358 | -121.53243 | 32074 ft | 438 kts | 33° |
| 2026-05-03 22:58 | 39.12087 | -121.51891 | 32230 ft | 439 kts | 33° |
| 2026-05-03 22:58 | 39.15579 | -121.49159 | 32532 ft | 441 kts | 33° |
| 2026-05-03 22:58 | 39.18221 | -121.47089 | 32747 ft | 442 kts | 33° |
| 2026-05-03 22:58 | 39.19987 | -121.45705 | 32891 ft | 443 kts | 33° |
| 2026-05-03 22:59 | 39.23504 | -121.42945 | 33180 ft | 444 kts | 33° |
| 2026-05-03 22:59 | 39.26156 | -121.40859 | 33388 ft | 446 kts | 33° |
| 2026-05-03 22:59 | 39.27914 | -121.39477 | 33522 ft | 446 kts | 33° |
| 2026-05-03 22:59 | 39.31505 | -121.36651 | 33815 ft | 447 kts | 33° |
| 2026-05-03 23:00 | 39.34168 | -121.34552 | 34093 ft | 447 kts | 33° |
| 2026-05-03 23:00 | 39.36797 | -121.32479 | 34385 ft | 445 kts | 33° |
| 2026-05-03 23:00 | 39.39443 | -121.30390 | 34667 ft | 444 kts | 33° |
| 2026-05-03 23:00 | 39.41226 | -121.28982 | 34842 ft | 444 kts | 33° |
| 2026-05-03 23:01 | 39.44745 | -121.26199 | 35161 ft | 443 kts | 33° |
| 2026-05-03 23:01 | 39.47403 | -121.24095 | 35363 ft | 444 kts | 33° |
| 2026-05-03 23:01 | 39.49129 | -121.22728 | 35486 ft | 444 kts | 33° |
| 2026-05-03 23:01 | 39.52671 | -121.19920 | 35722 ft | 445 kts | 33° |
| 2026-05-03 23:02 | 39.55321 | -121.17816 | 35901 ft | 446 kts | 33° |
| 2026-05-03 23:02 | 39.57993 | -121.15694 | 36095 ft | 446 kts | 33° |
| 2026-05-03 23:02 | 39.60618 | -121.13607 | 36292 ft | 445 kts | 33° |
| 2026-05-03 23:02 | 39.63286 | -121.11484 | 36471 ft | 445 kts | 33° |
| 2026-05-03 23:03 | 39.65945 | -121.09366 | 36643 ft | 446 kts | 33° |
| 2026-05-03 23:03 | 39.68570 | -121.07273 | 36815 ft | 446 kts | 33° |
| 2026-05-03 23:03 | 39.70339 | -121.05862 | 36922 ft | 446 kts | 33° |
| 2026-05-03 23:04 | 39.75645 | -121.01623 | 36960 ft | 445 kts | 34° |
| 2026-05-03 23:04 | 39.81798 | -120.96697 | 36964 ft | 443 kts | 34° |
| 2026-05-03 23:05 | 39.87051 | -120.92484 | 36968 ft | 442 kts | 34° |
| 2026-05-03 23:05 | 39.92312 | -120.88254 | 36985 ft | 442 kts | 34° |
| 2026-05-03 23:06 | 39.96661 | -120.84754 | 37005 ft | 441 kts | 34° |
| 2026-05-03 23:06 | 40.01926 | -120.80510 | 37028 ft | 441 kts | 34° |
| 2026-05-03 23:07 | 40.08040 | -120.75571 | 37042 ft | 441 kts | 34° |
| 2026-05-03 23:07 | 40.13285 | -120.71324 | 37048 ft | 441 kts | 34° |
| 2026-05-03 23:08 | 40.18502 | -120.67094 | 37047 ft | 442 kts | 34° |
| 2026-05-03 23:08 | 40.23745 | -120.62836 | 37041 ft | 441 kts | 34° |
| 2026-05-03 23:09 | 40.28957 | -120.58594 | 37031 ft | 441 kts | 34° |
| 2026-05-03 23:09 | 40.34207 | -120.54313 | 37020 ft | 441 kts | 34° |
| 2026-05-03 23:10 | 40.38540 | -120.50774 | 37006 ft | 441 kts | 34° |
| 2026-05-03 23:10 | 40.43765 | -120.46498 | 36984 ft | 441 kts | 34° |
| 2026-05-03 23:11 | 40.49000 | -120.42208 | 36965 ft | 442 kts | 34° |
| 2026-05-03 23:11 | 40.54224 | -120.37917 | 36956 ft | 442 kts | 34° |
| 2026-05-03 23:12 | 40.59457 | -120.33612 | 36954 ft | 442 kts | 34° |
| 2026-05-03 23:12 | 40.64695 | -120.29295 | 36949 ft | 441 kts | 34° |
| 2026-05-03 23:13 | 40.69885 | -120.25009 | 36943 ft | 441 kts | 34° |
| 2026-05-03 23:13 | 40.76013 | -120.19939 | 36940 ft | 441 kts | 34° |
| 2026-05-03 23:14 | 40.81208 | -120.15631 | 36941 ft | 441 kts | 34° |
| 2026-05-03 23:14 | 40.85551 | -120.12026 | 36940 ft | 442 kts | 34° |
| 2026-05-03 23:15 | 40.90785 | -120.07672 | 36940 ft | 441 kts | 34° |
| 2026-05-03 23:15 | 40.95987 | -120.03336 | 36939 ft | 441 kts | 34° |
| 2026-05-03 23:16 | 41.01952 | -119.98095 | 36939 ft | 441 kts | 36° |
| 2026-05-03 23:16 | 41.06132 | -119.94071 | 36938 ft | 444 kts | 36° |
| 2026-05-03 23:17 | 41.12013 | -119.88390 | 36938 ft | 451 kts | 35° |
| 2026-05-03 23:17 | 41.16227 | -119.84320 | 36939 ft | 453 kts | 35° |
| 2026-05-03 23:18 | 41.21341 | -119.79374 | 36939 ft | 454 kts | 35° |
| 2026-05-03 23:18 | 41.26485 | -119.74387 | 36939 ft | 454 kts | 35° |
| 2026-05-03 23:19 | 41.31583 | -119.69432 | 36940 ft | 454 kts | 35° |
| 2026-05-03 23:19 | 41.36689 | -119.64460 | 36940 ft | 453 kts | 35° |
| 2026-05-03 23:20 | 41.42627 | -119.58666 | 36940 ft | 453 kts | 35° |
| 2026-05-03 23:20 | 41.46863 | -119.54524 | 36940 ft | 454 kts | 35° |
| 2026-05-03 23:21 | 41.52815 | -119.48692 | 36944 ft | 454 kts | 35° |
| 2026-05-03 23:21 | 41.57051 | -119.44534 | 36952 ft | 454 kts | 35° |
| 2026-05-03 23:22 | 41.64708 | -119.36999 | 36967 ft | 453 kts | 35° |
| 2026-05-03 23:22 | 41.69778 | -119.31998 | 36972 ft | 453 kts | 36° |
| 2026-05-03 23:23 | 41.74860 | -119.26975 | 36974 ft | 454 kts | 36° |
| 2026-05-03 23:23 | 41.79960 | -119.21924 | 36973 ft | 454 kts | 36° |
| 2026-05-03 23:24 | 41.85041 | -119.16880 | 36966 ft | 454 kts | 36° |
| 2026-05-03 23:24 | 41.90137 | -119.11813 | 36955 ft | 454 kts | 36° |
| 2026-05-03 23:25 | 41.95216 | -119.06752 | 36942 ft | 454 kts | 36° |
| 2026-05-03 23:25 | 42.00290 | -119.01685 | 36929 ft | 453 kts | 36° |
| 2026-05-03 23:26 | 42.05342 | -118.96627 | 36921 ft | 451 kts | 36° |
| 2026-05-03 23:26 | 42.10396 | -118.91559 | 36916 ft | 449 kts | 36° |
| 2026-05-03 23:27 | 42.15413 | -118.86519 | 36914 ft | 446 kts | 35° |
| 2026-05-03 23:27 | 42.21232 | -118.80658 | 36914 ft | 443 kts | 35° |
| 2026-05-03 23:28 | 42.25368 | -118.76487 | 36913 ft | 442 kts | 35° |
| 2026-05-03 23:28 | 42.30305 | -118.71500 | 36913 ft | 442 kts | 35° |
| 2026-05-03 23:29 | 42.35223 | -118.66522 | 36914 ft | 442 kts | 35° |
| 2026-05-03 23:29 | 42.40157 | -118.61514 | 36913 ft | 442 kts | 35° |
| 2026-05-03 23:30 | 42.45075 | -118.56514 | 36912 ft | 442 kts | 35° |
| 2026-05-03 23:30 | 42.50032 | -118.51466 | 36912 ft | 442 kts | 35° |
| 2026-05-03 23:31 | 42.54943 | -118.46451 | 36913 ft | 442 kts | 35° |
| 2026-05-03 23:31 | 42.59881 | -118.41399 | 36913 ft | 442 kts | 35° |
| 2026-05-03 23:32 | 42.64811 | -118.36346 | 36914 ft | 442 kts | 35° |
| 2026-05-03 23:32 | 42.69734 | -118.31289 | 36913 ft | 442 kts | 36° |
| 2026-05-03 23:33 | 42.74633 | -118.26247 | 36913 ft | 442 kts | 36° |
| 2026-05-03 23:33 | 42.79579 | -118.21148 | 36913 ft | 442 kts | 36° |
| 2026-05-03 23:34 | 42.84467 | -118.16099 | 36913 ft | 442 kts | 36° |
| 2026-05-03 23:34 | 42.89383 | -118.11008 | 36913 ft | 443 kts | 35° |
| 2026-05-03 23:35 | 42.94318 | -118.05882 | 36911 ft | 444 kts | 34° |
| 2026-05-03 23:35 | 42.99269 | -118.00736 | 36911 ft | 449 kts | 33° |
| 2026-05-03 23:36 | 43.04387 | -117.95731 | 36911 ft | 453 kts | 31° |
| 2026-05-03 23:36 | 43.09591 | -117.90736 | 36913 ft | 456 kts | 31° |
| 2026-05-03 23:37 | 43.14806 | -117.85720 | 36913 ft | 456 kts | 31° |
| 2026-05-03 23:37 | 43.20013 | -117.80695 | 36914 ft | 456 kts | 31° |
| 2026-05-03 23:38 | 43.25204 | -117.75674 | 36913 ft | 456 kts | 31° |
| 2026-05-03 23:38 | 43.30386 | -117.70649 | 36913 ft | 456 kts | 31° |
| 2026-05-03 23:39 | 43.35555 | -117.65625 | 36914 ft | 456 kts | 31° |
| 2026-05-03 23:39 | 43.40781 | -117.60536 | 36912 ft | 456 kts | 31° |
| 2026-05-03 23:40 | 43.45929 | -117.55512 | 36905 ft | 456 kts | 31° |
| 2026-05-03 23:40 | 43.51144 | -117.50410 | 36893 ft | 456 kts | 31° |
| 2026-05-03 23:41 | 43.56323 | -117.45337 | 36885 ft | 456 kts | 31° |
| 2026-05-03 23:41 | 43.61509 | -117.40241 | 36878 ft | 456 kts | 31° |
| 2026-05-03 23:42 | 43.66668 | -117.35162 | 36875 ft | 456 kts | 31° |
| 2026-05-03 23:42 | 43.71872 | -117.30028 | 36876 ft | 457 kts | 32° |
| 2026-05-03 23:43 | 43.77047 | -117.24913 | 36876 ft | 457 kts | 32° |
| 2026-05-03 23:43 | 43.82212 | -117.19796 | 36875 ft | 456 kts | 32° |
| 2026-05-03 23:44 | 43.87408 | -117.14635 | 36875 ft | 456 kts | 32° |
| 2026-05-03 23:44 | 43.92588 | -117.09481 | 36876 ft | 456 kts | 32° |
| 2026-05-03 23:45 | 43.97739 | -117.04343 | 36876 ft | 455 kts | 32° |
| 2026-05-03 23:45 | 44.02887 | -116.99198 | 36876 ft | 454 kts | 32° |
| 2026-05-03 23:46 | 44.08001 | -116.94076 | 36876 ft | 452 kts | 32° |
| 2026-05-03 23:46 | 44.13136 | -116.88920 | 36878 ft | 451 kts | 32° |
| 2026-05-03 23:47 | 44.18234 | -116.83792 | 36876 ft | 450 kts | 32° |
| 2026-05-03 23:47 | 44.23330 | -116.78654 | 36876 ft | 450 kts | 32° |
| 2026-05-03 23:48 | 44.28402 | -116.73528 | 36877 ft | 450 kts | 32° |
| 2026-05-03 23:48 | 44.33469 | -116.68397 | 36876 ft | 450 kts | 32° |
| 2026-05-03 23:49 | 44.38557 | -116.63234 | 36876 ft | 450 kts | 32° |
| 2026-05-03 23:49 | 44.43637 | -116.58067 | 36880 ft | 450 kts | 32° |
| 2026-05-03 23:50 | 44.48711 | -116.52895 | 36895 ft | 450 kts | 32° |
| 2026-05-03 23:50 | 44.53793 | -116.47704 | 36917 ft | 450 kts | 32° |
| 2026-05-03 23:51 | 44.58876 | -116.42500 | 36947 ft | 450 kts | 32° |
| 2026-05-03 23:51 | 44.63935 | -116.37310 | 36970 ft | 450 kts | 32° |
| 2026-05-03 23:52 | 44.68983 | -116.32119 | 36984 ft | 450 kts | 33° |
| 2026-05-03 23:52 | 44.74044 | -116.26903 | 36990 ft | 450 kts | 33° |
| 2026-05-03 23:53 | 44.79117 | -116.21665 | 36994 ft | 450 kts | 33° |
| 2026-05-03 23:53 | 44.84186 | -116.16419 | 36994 ft | 450 kts | 33° |
| 2026-05-03 23:54 | 44.89231 | -116.11189 | 36995 ft | 450 kts | 33° |
| 2026-05-03 23:54 | 44.94301 | -116.05918 | 36994 ft | 450 kts | 33° |
| 2026-05-03 23:55 | 44.99315 | -116.00558 | 36993 ft | 452 kts | 36° |
| 2026-05-03 23:55 | 45.04003 | -115.94606 | 36995 ft | 455 kts | 40° |
| 2026-05-03 23:56 | 45.08603 | -115.88388 | 36994 ft | 457 kts | 40° |
| 2026-05-03 23:56 | 45.13215 | -115.82132 | 36995 ft | 458 kts | 40° |
| 2026-05-03 23:57 | 45.17855 | -115.75832 | 36994 ft | 459 kts | 40° |
| 2026-05-03 23:57 | 45.22446 | -115.69589 | 36995 ft | 459 kts | 40° |
| 2026-05-03 23:58 | 45.27089 | -115.63262 | 36994 ft | 459 kts | 40° |
| 2026-05-03 23:58 | 45.31678 | -115.56996 | 36994 ft | 459 kts | 40° |
| 2026-05-03 23:59 | 45.36315 | -115.50649 | 36990 ft | 459 kts | 40° |
| 2026-05-03 23:59 | 45.40917 | -115.44335 | 36984 ft | 459 kts | 40° |
| 2026-05-04 00:00 | 45.45498 | -115.38035 | 36977 ft | 459 kts | 40° |
| 2026-05-04 00:00 | 45.50115 | -115.31670 | 36971 ft | 459 kts | 41° |
| 2026-05-04 00:01 | 45.54708 | -115.25325 | 36969 ft | 459 kts | 41° |
| 2026-05-04 00:01 | 45.59294 | -115.18971 | 36968 ft | 459 kts | 41° |
| 2026-05-04 00:02 | 45.63908 | -115.12559 | 36968 ft | 458 kts | 40° |
| 2026-05-04 00:02 | 45.68465 | -115.06212 | 36968 ft | 457 kts | 40° |
| 2026-05-04 00:03 | 45.73004 | -114.99876 | 36966 ft | 454 kts | 40° |
| 2026-05-04 00:03 | 45.77528 | -114.93549 | 36962 ft | 453 kts | 39° |
| 2026-05-04 00:04 | 45.82055 | -114.87209 | 36954 ft | 453 kts | 39° |
| 2026-05-04 00:04 | 45.86560 | -114.80884 | 36939 ft | 453 kts | 39° |
| 2026-05-04 00:05 | 45.91078 | -114.74519 | 36923 ft | 453 kts | 39° |
| 2026-05-04 00:05 | 45.95593 | -114.68143 | 36904 ft | 453 kts | 39° |
| 2026-05-04 00:06 | 46.00093 | -114.61773 | 36892 ft | 453 kts | 39° |
| 2026-05-04 00:06 | 46.04571 | -114.55420 | 36886 ft | 453 kts | 39° |
| 2026-05-04 00:07 | 46.09076 | -114.49012 | 36884 ft | 453 kts | 39° |
| 2026-05-04 00:07 | 46.13572 | -114.42602 | 36886 ft | 453 kts | 39° |
| 2026-05-04 00:08 | 46.18067 | -114.36179 | 36885 ft | 454 kts | 39° |
| 2026-05-04 00:08 | 46.22559 | -114.29742 | 36884 ft | 454 kts | 40° |
| 2026-05-04 00:09 | 46.27057 | -114.23281 | 36884 ft | 453 kts | 40° |
| 2026-05-04 00:09 | 46.31522 | -114.16853 | 36885 ft | 454 kts | 40° |